createdAt,value
2019-02-06T00:03:39.489Z,101383.59
2019-02-06T00:08:43.600Z,101390.38
2019-02-06T00:13:48.962Z,101401.31
2019-02-06T00:18:53.077Z,101401.31
2019-02-06T00:23:57.291Z,101402.66
2019-02-06T00:29:01.423Z,101402.66
2019-02-06T00:34:05.607Z,101399.14
2019-02-06T00:39:10.911Z,101402.87
2019-02-06T00:44:14.968Z,101402.87
2019-02-06T00:49:47.335Z,101402.48
2019-02-06T00:54:52.869Z,101396.93
2019-02-06T00:59:58.615Z,101401.52
2019-02-06T01:05:03.151Z,101395.84
2019-02-06T01:10:08.542Z,101397.70
2019-02-06T01:15:13.548Z,101396.80
2019-02-06T01:20:17.987Z,101398.14
2019-02-06T01:25:22.167Z,101398.14
2019-02-06T01:30:27.182Z,101393.02
2019-02-06T01:35:31.674Z,101384.99
2019-02-06T01:40:35.811Z,101386.68
2019-02-06T01:45:40.131Z,101380.43
2019-02-06T01:50:44.223Z,101375.75
2019-02-06T01:55:48.418Z,101366.80
2019-02-06T02:00:52.899Z,101366.80
2019-02-06T02:06:02.233Z,101355.03
2019-02-06T02:11:02.857Z,101353.61
2019-02-06T02:16:07.268Z,101355.34
2019-02-06T02:21:11.449Z,101355.34
2019-02-06T02:26:15.916Z,101353.13
2019-02-06T02:31:20.075Z,101353.13
2019-02-06T02:36:24.275Z,101352.56
2019-02-06T02:41:28.468Z,101345.45
2019-02-06T02:46:32.528Z,101343.09
2019-02-06T02:51:36.723Z,101343.09
2019-02-06T02:56:40.895Z,101341.75
2019-02-06T03:02:01.457Z,101333.25
2019-02-06T03:07:05.980Z,101333.25
2019-02-06T03:12:10.258Z,101333.20
2019-02-06T03:17:14.294Z,101328.29
2019-02-06T03:22:18.326Z,101328.29
2019-02-06T03:27:22.478Z,101326.38
2019-02-06T03:32:26.566Z,101321.95
2019-02-06T03:37:30.869Z,101315.22
2019-02-06T03:42:34.921Z,101320.61
2019-02-06T03:47:39.106Z,101325.52
2019-02-06T03:52:43.339Z,101315.22
2019-02-06T03:57:47.433Z,101322.91
2019-02-06T04:02:51.788Z,101321.14
2019-02-06T04:07:55.903Z,101302.86
2019-02-06T04:12:59.932Z,101302.86
2019-02-06T04:18:04.120Z,101312.51
2019-02-06T04:23:08.354Z,101312.51
2019-02-06T04:28:12.628Z,101308.31
2019-02-06T04:33:16.702Z,101300.63
2019-02-06T04:38:20.741Z,101298.03
2019-02-06T04:43:24.917Z,101298.03
2019-02-06T04:48:32.115Z,101301.25
2019-02-06T04:53:34.881Z,101301.25
2019-02-06T04:58:38.911Z,101299.44
2019-02-06T05:03:42.977Z,101302.27
2019-02-06T05:08:47.223Z,101304.70
2019-02-06T05:13:51.427Z,101302.48
2019-02-06T05:18:55.435Z,101300.35
2019-02-06T05:23:59.629Z,101300.35
2019-02-06T05:29:03.746Z,101305.86
2019-02-06T05:34:07.865Z,101308.23
2019-02-06T05:39:14.438Z,101308.23
2019-02-06T05:44:18.639Z,101307.90
2019-02-06T05:49:22.745Z,101310.19
2019-02-06T05:54:26.866Z,101308.28
2019-02-06T05:59:30.977Z,101317.81
2019-02-06T06:04:35.047Z,101316.08
2019-02-06T06:09:39.079Z,101316.08
2019-02-06T06:14:43.124Z,101312.69
2019-02-06T06:19:47.165Z,101312.69
2019-02-06T06:24:51.266Z,101302.14
2019-02-06T06:29:55.375Z,101302.14
2019-02-06T06:34:59.795Z,101302.36
2019-02-06T06:40:05.101Z,101301.09
2019-02-06T06:45:11.230Z,101301.70
2019-02-06T06:50:17.569Z,101303.59
2019-02-06T06:55:22.153Z,101303.59
2019-02-06T07:00:27.957Z,101298.34
2019-02-06T07:05:31.978Z,101295.39
2019-02-06T07:10:36.448Z,101295.39
2019-02-06T07:15:40.493Z,101295.00
2019-02-06T07:20:44.526Z,101288.36
2019-02-06T07:25:48.664Z,101281.54
2019-02-06T07:30:52.700Z,101285.67
2019-02-06T07:35:57.126Z,101283.55
2019-02-06T07:41:01.159Z,101286.70
2019-02-06T07:46:05.451Z,101283.55
2019-02-06T07:51:09.507Z,101289.39
2019-02-06T07:56:13.623Z,101296.38
2019-02-06T08:01:18.175Z,101277.02
2019-02-06T08:06:22.216Z,101257.67
2019-02-06T08:11:26.961Z,101254.67
2019-02-06T08:16:31.317Z,101254.67
2019-02-06T08:21:35.451Z,101257.42
2019-02-06T08:26:39.878Z,101243.83
2019-02-06T08:31:44.000Z,101244.84
2019-02-06T08:36:48.111Z,101244.69
2019-02-06T08:41:52.258Z,101241.37
2019-02-06T08:46:56.449Z,101240.97
2019-02-06T08:52:00.571Z,101241.04
2019-02-06T08:57:04.766Z,101240.23
2019-02-06T09:02:08.958Z,101240.23
2019-02-06T09:07:13.163Z,101238.74
2019-02-06T09:12:17.283Z,101238.74
2019-02-06T09:17:21.393Z,101232.75
2019-02-06T09:22:25.536Z,101232.75
2019-02-06T09:27:29.618Z,101229.34
2019-02-06T09:32:33.717Z,101220.47
2019-02-06T09:37:37.848Z,101220.47
2019-02-06T09:42:41.946Z,101216.66
2019-02-06T09:47:46.062Z,101205.99
2019-02-06T09:52:50.279Z,101200.47
2019-02-06T09:57:54.492Z,101202.19
2019-02-06T10:02:58.693Z,101199.13
2019-02-06T10:08:02.787Z,101199.13
2019-02-06T10:13:06.969Z,101194.44
2019-02-06T10:18:11.149Z,101196.87
2019-02-06T10:23:15.453Z,101189.20
2019-02-06T10:28:19.576Z,101187.32
2019-02-06T10:33:23.685Z,101182.16
2019-02-06T10:38:27.726Z,101182.16
2019-02-06T10:43:35.506Z,101180.67
2019-02-06T10:48:37.505Z,101174.59
2019-02-06T10:53:41.526Z,101174.59
2019-02-06T10:58:45.558Z,101157.17
2019-02-06T11:03:49.645Z,101149.88
2019-02-06T11:08:53.773Z,101147.73
2019-02-06T11:13:57.895Z,101137.12
2019-02-06T11:19:02.055Z,101127.02
2019-02-06T11:24:06.325Z,101117.70
2019-02-06T11:29:10.511Z,101117.70
2019-02-06T11:34:15.005Z,101110.92
2019-02-06T11:39:24.007Z,101096.84
2019-02-06T11:44:28.033Z,101094.87
2019-02-06T11:49:39.183Z,101094.87
2019-02-06T11:54:43.220Z,101078.83
2019-02-06T11:59:47.347Z,101071.53
2019-02-06T12:04:51.458Z,101067.34
2019-02-06T12:09:55.863Z,101047.12
2019-02-06T12:14:59.965Z,101042.70
2019-02-06T12:20:04.867Z,101034.59
2019-02-06T12:25:10.120Z,101034.59
2019-02-06T12:30:18.180Z,101018.77
2019-02-06T12:35:22.502Z,101008.41
2019-02-06T12:40:28.773Z,100995.88
2019-02-06T12:45:32.895Z,100991.61
2019-02-06T12:50:37.857Z,100981.45
2019-02-06T12:55:42.096Z,100972.22
2019-02-06T13:00:46.323Z,100972.22
2019-02-06T13:05:50.501Z,100969.17
2019-02-06T13:10:54.699Z,100958.86
2019-02-06T13:15:58.900Z,100958.86
2019-02-06T13:21:02.926Z,100953.86
2019-02-06T13:26:07.110Z,100949.02
2019-02-06T13:31:11.261Z,100942.88
2019-02-06T13:36:15.431Z,100936.02
2019-02-06T13:41:19.464Z,100930.25
2019-02-06T13:46:23.608Z,100925.73
2019-02-06T13:51:28.172Z,100925.73
2019-02-06T13:56:32.290Z,100910.23
2019-02-06T14:01:36.402Z,100898.05
2019-02-06T14:06:40.901Z,100898.05
2019-02-06T14:11:45.094Z,100890.39
2019-02-06T14:16:49.398Z,100875.58
2019-02-06T14:21:53.503Z,100870.33
2019-02-06T14:27:22.529Z,100874.95
2019-02-06T14:32:43.817Z,100874.95
2019-02-06T14:38:20.383Z,100857.28
2019-02-06T14:43:49.332Z,100851.39
2019-02-06T14:49:19.101Z,100839.14
2019-02-06T14:54:53.389Z,100839.14
2019-02-06T15:00:31.836Z,100856.86
2019-02-06T15:06:03.969Z,100847.12
2019-02-06T15:11:28.435Z,100844.77
2019-02-06T15:17:23.794Z,100844.77
2019-02-06T15:22:45.391Z,100839.73
2019-02-06T15:28:48.579Z,100824.91
2019-02-06T15:34:32.826Z,100820.02
2019-02-06T15:40:29.814Z,100817.89
2019-02-06T15:46:10.469Z,100807.27
2019-02-06T15:51:43.297Z,100807.27
2019-02-06T15:57:10.594Z,100815.77
2019-02-06T16:02:28.659Z,100806.45
2019-02-06T16:08:07.564Z,100791.84
2019-02-06T16:13:34.436Z,100784.93
2019-02-06T16:18:54.704Z,100786.17
2019-02-06T16:24:24.859Z,100791.17
2019-02-06T16:30:01.833Z,100786.44
2019-02-06T16:35:27.601Z,100786.44
2019-02-06T16:41:16.116Z,100799.73
2019-02-06T16:47:03.665Z,100788.48
2019-02-06T16:52:56.471Z,100794.36
2019-02-06T16:58:28.731Z,100796.37
2019-02-06T17:04:14.159Z,100792.17
2019-02-06T17:10:08.128Z,100789.31
2019-02-06T17:15:28.965Z,100783.60
2019-02-06T17:21:07.927Z,100769.52
2019-02-06T17:27:02.169Z,100771.47
2019-02-06T17:32:33.296Z,100769.77
2019-02-06T17:38:21.868Z,100769.77
2019-02-06T17:44:12.678Z,100760.10
2019-02-06T17:49:40.531Z,100756.55
2019-02-06T17:55:21.124Z,100758.94
2019-02-06T18:00:32.037Z,100758.94
2019-02-06T18:05:36.153Z,100763.77
2019-02-06T18:10:40.918Z,100765.72
2019-02-06T18:15:45.049Z,100759.95
2019-02-06T18:20:49.371Z,100759.13
2019-02-06T18:25:55.679Z,100757.03
2019-02-06T18:31:00.724Z,100755.42
2019-02-06T18:36:06.121Z,100751.82
2019-02-06T18:41:10.855Z,100754.25
2019-02-06T18:46:15.702Z,100754.25
2019-02-06T18:51:20.079Z,100742.91
2019-02-06T18:56:24.407Z,100751.94
2019-02-06T19:01:29.952Z,100741.33
2019-02-06T19:06:35.055Z,100742.00
2019-02-06T19:11:40.546Z,100742.34
2019-02-06T19:16:45.215Z,100742.34
2019-02-06T19:21:49.874Z,100738.48
2019-02-06T19:26:54.792Z,100738.48
2019-02-06T19:32:01.134Z,100715.36
2019-02-06T19:37:07.216Z,100715.36
2019-02-06T19:42:12.856Z,100704.38
2019-02-06T19:47:19.280Z,100698.05
2019-02-06T19:52:25.614Z,100686.77
2019-02-06T19:57:31.450Z,100685.98
2019-02-06T20:02:37.318Z,100675.94
2019-02-06T20:07:43.144Z,100672.27
2019-02-06T20:12:48.651Z,100667.05
2019-02-06T20:17:53.806Z,100667.05
2019-02-06T20:22:59.914Z,100675.67
2019-02-06T20:28:05.977Z,100675.96
2019-02-06T20:33:12.784Z,100675.96
2019-02-06T20:38:18.726Z,100676.82
2019-02-06T20:43:25.520Z,100669.03
2019-02-06T20:48:31.278Z,100669.03
2019-02-06T20:53:36.608Z,100663.83
2019-02-06T20:58:43.023Z,100657.22
2019-02-06T21:03:48.731Z,100657.22
2019-02-06T21:08:55.012Z,100647.35
2019-02-06T21:14:00.419Z,100642.25
2019-02-06T21:19:05.154Z,100636.03
2019-02-06T21:24:09.481Z,100638.42
2019-02-06T21:29:13.710Z,100638.42
2019-02-06T21:34:17.841Z,100632.45
2019-02-06T21:39:22.424Z,100632.67
2019-02-06T21:44:26.655Z,100636.24
2019-02-06T21:49:30.686Z,100631.14
2019-02-06T21:54:34.726Z,100618.65
2019-02-06T21:59:38.822Z,100613.16
2019-02-06T22:04:43.215Z,100611.91
2019-02-06T22:09:47.403Z,100611.91
2019-02-06T22:14:51.515Z,100601.06
2019-02-06T22:19:55.558Z,100574.57
2019-02-06T22:24:59.669Z,100574.57
2019-02-06T22:30:05.106Z,100559.01
2019-02-06T22:35:11.991Z,100559.01
2019-02-06T22:40:17.682Z,100556.31
2019-02-06T22:45:23.604Z,100542.28
2019-02-06T22:50:28.565Z,100542.28
2019-02-06T22:55:32.752Z,100536.61
2019-02-06T23:01:01.251Z,100536.61
2019-02-06T23:06:06.623Z,100514.61
2019-02-06T23:11:10.829Z,100503.16
2019-02-06T23:16:15.325Z,100500.85
2019-02-06T23:21:19.426Z,100491.81
2019-02-06T23:26:23.530Z,100491.81
2019-02-06T23:31:27.694Z,100501.07
2019-02-06T23:36:32.130Z,100501.07
2019-02-06T23:41:36.248Z,100501.07
2019-02-06T23:46:40.272Z,100495.28
2019-02-06T23:51:44.940Z,100483.67
2019-02-06T23:56:48.976Z,100486.75
